sensor_id;sensor_type;location;lat;lon;timestamp;P1;durP1;ratioP1;P2;durP2;ratioP2
19080;SDS011;9673;50.868;3.152;2022-08-21T00:00:28;11.87;;;3.60;;
19080;SDS011;9673;50.868;3.152;2022-08-21T00:03:35;5.63;;;2.97;;
19080;SDS011;9673;50.868;3.152;2022-08-21T00:06:42;9.57;;;3.20;;
19080;SDS011;9673;50.868;3.152;2022-08-21T00:09:49;13.77;;;3.40;;
19080;SDS011;9673;50.868;3.152;2022-08-21T00:12:57;10.77;;;3.47;;
19080;SDS011;9673;50.868;3.152;2022-08-21T00:16:05;8.83;;;3.43;;
19080;SDS011;9673;50.868;3.152;2022-08-21T00:19:12;9.70;;;3.60;;
19080;SDS011;9673;50.868;3.152;2022-08-21T00:22:18;8.07;;;3.07;;
19080;SDS011;9673;50.868;3.152;2022-08-21T00:25:25;9.87;;;3.00;;
19080;SDS011;9673;50.868;3.152;2022-08-21T00:28:34;6.40;;;3.60;;
19080;SDS011;9673;50.868;3.152;2022-08-21T00:31:41;10.27;;;3.27;;
19080;SDS011;9673;50.868;3.152;2022-08-21T00:34:48;9.10;;;3.57;;
19080;SDS011;9673;50.868;3.152;2022-08-21T00:37:56;9.13;;;3.13;;
19080;SDS011;9673;50.868;3.152;2022-08-21T00:41:04;9.80;;;3.60;;
19080;SDS011;9673;50.868;3.152;2022-08-21T00:44:34;9.87;;;3.60;;
19080;SDS011;9673;50.868;3.152;2022-08-21T00:47:41;8.50;;;3.40;;
19080;SDS011;9673;50.868;3.152;2022-08-21T00:50:50;5.80;;;3.40;;
19080;SDS011;9673;50.868;3.152;2022-08-21T00:54:01;8.40;;;3.53;;
19080;SDS011;9673;50.868;3.152;2022-08-21T00:57:24;6.87;;;3.47;;
19080;SDS011;9673;50.868;3.152;2022-08-21T01:00:37;9.20;;;3.20;;
19080;SDS011;9673;50.868;3.152;2022-08-21T01:03:47;6.53;;;3.30;;
19080;SDS011;9673;50.868;3.152;2022-08-21T01:06:54;8.57;;;3.53;;
19080;SDS011;9673;50.868;3.152;2022-08-21T01:10:01;7.90;;;3.70;;
19080;SDS011;9673;50.868;3.152;2022-08-21T01:13:10;9.70;;;3.90;;
19080;SDS011;9673;50.868;3.152;2022-08-21T01:16:22;6.60;;;3.70;;
19080;SDS011;9673;50.868;3.152;2022-08-21T01:19:28;11.57;;;4.30;;
19080;SDS011;9673;50.868;3.152;2022-08-21T01:22:36;14.83;;;3.77;;
19080;SDS011;9673;50.868;3.152;2022-08-21T01:25:44;10.60;;;3.50;;
19080;SDS011;9673;50.868;3.152;2022-08-21T01:28:52;10.53;;;3.63;;
19080;SDS011;9673;50.868;3.152;2022-08-21T01:32:05;7.60;;;3.80;;
19080;SDS011;9673;50.868;3.152;2022-08-21T01:35:17;6.97;;;3.60;;
19080;SDS011;9673;50.868;3.152;2022-08-21T01:38:26;9.97;;;3.63;;
19080;SDS011;9673;50.868;3.152;2022-08-21T01:41:34;5.93;;;3.23;;
19080;SDS011;9673;50.868;3.152;2022-08-21T01:44:41;8.43;;;3.50;;
19080;SDS011;9673;50.868;3.152;2022-08-21T01:47:48;8.20;;;3.67;;
19080;SDS011;9673;50.868;3.152;2022-08-21T01:50:54;7.37;;;3.10;;
19080;SDS011;9673;50.868;3.152;2022-08-21T01:54:02;8.00;;;3.53;;
19080;SDS011;9673;50.868;3.152;2022-08-21T01:57:09;9.33;;;3.27;;
19080;SDS011;9673;50.868;3.152;2022-08-21T02:00:18;7.03;;;3.47;;
19080;SDS011;9673;50.868;3.152;2022-08-21T02:03:28;5.77;;;3.70;;
19080;SDS011;9673;50.868;3.152;2022-08-21T02:06:39;5.63;;;3.27;;
19080;SDS011;9673;50.868;3.152;2022-08-21T02:09:48;7.57;;;3.60;;
19080;SDS011;9673;50.868;3.152;2022-08-21T02:12:54;6.13;;;3.60;;
19080;SDS011;9673;50.868;3.152;2022-08-21T02:16:03;7.63;;;3.57;;
19080;SDS011;9673;50.868;3.152;2022-08-21T02:19:12;5.73;;;3.57;;
19080;SDS011;9673;50.868;3.152;2022-08-21T02:22:20;9.23;;;3.40;;
19080;SDS011;9673;50.868;3.152;2022-08-21T02:25:28;6.83;;;3.20;;
19080;SDS011;9673;50.868;3.152;2022-08-21T02:28:36;10.17;;;4.00;;
19080;SDS011;9673;50.868;3.152;2022-08-21T02:31:43;11.57;;;3.43;;
19080;SDS011;9673;50.868;3.152;2022-08-21T02:34:50;11.30;;;4.10;;
19080;SDS011;9673;50.868;3.152;2022-08-21T02:37:58;10.87;;;4.00;;
19080;SDS011;9673;50.868;3.152;2022-08-21T02:41:19;10.33;;;3.93;;
19080;SDS011;9673;50.868;3.152;2022-08-21T02:44:26;14.30;;;3.63;;
19080;SDS011;9673;50.868;3.152;2022-08-21T02:47:38;7.87;;;3.77;;
19080;SDS011;9673;50.868;3.152;2022-08-21T02:50:45;11.17;;;3.77;;
19080;SDS011;9673;50.868;3.152;2022-08-21T02:53:54;8.00;;;3.67;;
19080;SDS011;9673;50.868;3.152;2022-08-21T02:57:02;11.37;;;4.10;;
19080;SDS011;9673;50.868;3.152;2022-08-21T03:00:09;9.60;;;3.67;;
19080;SDS011;9673;50.868;3.152;2022-08-21T03:03:17;10.57;;;3.93;;
19080;SDS011;9673;50.868;3.152;2022-08-21T03:06:25;8.10;;;4.10;;
19080;SDS011;9673;50.868;3.152;2022-08-21T03:09:33;9.87;;;4.13;;
19080;SDS011;9673;50.868;3.152;2022-08-21T03:12:41;10.03;;;3.60;;
19080;SDS011;9673;50.868;3.152;2022-08-21T03:15:48;8.43;;;3.80;;
19080;SDS011;9673;50.868;3.152;2022-08-21T03:18:55;10.80;;;4.00;;
19080;SDS011;9673;50.868;3.152;2022-08-21T03:22:01;11.77;;;3.73;;
19080;SDS011;9673;50.868;3.152;2022-08-21T03:25:08;9.77;;;3.17;;
19080;SDS011;9673;50.868;3.152;2022-08-21T03:28:22;10.13;;;4.17;;
19080;SDS011;9673;50.868;3.152;2022-08-21T03:31:29;8.20;;;3.80;;
19080;SDS011;9673;50.868;3.152;2022-08-21T03:34:35;8.43;;;3.37;;
19080;SDS011;9673;50.868;3.152;2022-08-21T03:37:42;9.13;;;4.23;;
19080;SDS011;9673;50.868;3.152;2022-08-21T03:40:49;8.60;;;3.77;;
19080;SDS011;9673;50.868;3.152;2022-08-21T03:43:57;10.87;;;3.57;;
19080;SDS011;9673;50.868;3.152;2022-08-21T03:47:04;11.30;;;5.00;;
19080;SDS011;9673;50.868;3.152;2022-08-21T03:50:11;15.80;;;5.33;;
19080;SDS011;9673;50.868;3.152;2022-08-21T03:53:17;19.43;;;5.63;;
19080;SDS011;9673;50.868;3.152;2022-08-21T03:56:24;12.00;;;5.27;;
19080;SDS011;9673;50.868;3.152;2022-08-21T03:59:31;14.17;;;5.57;;
19080;SDS011;9673;50.868;3.152;2022-08-21T04:02:38;11.27;;;5.70;;
19080;SDS011;9673;50.868;3.152;2022-08-21T04:05:45;14.63;;;5.70;;
19080;SDS011;9673;50.868;3.152;2022-08-21T04:08:52;16.20;;;5.83;;
19080;SDS011;9673;50.868;3.152;2022-08-21T04:11:59;13.67;;;5.23;;
19080;SDS011;9673;50.868;3.152;2022-08-21T04:15:09;14.10;;;5.10;;
19080;SDS011;9673;50.868;3.152;2022-08-21T04:18:17;13.73;;;5.63;;
19080;SDS011;9673;50.868;3.152;2022-08-21T04:21:23;19.33;;;5.57;;
19080;SDS011;9673;50.868;3.152;2022-08-21T04:24:31;12.13;;;5.73;;
19080;SDS011;9673;50.868;3.152;2022-08-21T04:27:37;16.07;;;5.80;;
19080;SDS011;9673;50.868;3.152;2022-08-21T04:30:45;12.20;;;4.70;;
19080;SDS011;9673;50.868;3.152;2022-08-21T04:33:53;11.97;;;5.73;;
19080;SDS011;9673;50.868;3.152;2022-08-21T04:37:00;18.10;;;6.90;;
19080;SDS011;9673;50.868;3.152;2022-08-21T04:40:08;12.37;;;5.17;;
19080;SDS011;9673;50.868;3.152;2022-08-21T04:43:16;10.70;;;5.03;;
19080;SDS011;9673;50.868;3.152;2022-08-21T04:46:25;10.67;;;5.10;;
19080;SDS011;9673;50.868;3.152;2022-08-21T04:49:32;14.93;;;4.83;;
19080;SDS011;9673;50.868;3.152;2022-08-21T04:52:38;11.23;;;4.47;;
19080;SDS011;9673;50.868;3.152;2022-08-21T04:55:45;9.37;;;4.50;;
19080;SDS011;9673;50.868;3.152;2022-08-21T04:58:52;11.37;;;4.37;;
19080;SDS011;9673;50.868;3.152;2022-08-21T05:02:03;12.80;;;4.63;;
19080;SDS011;9673;50.868;3.152;2022-08-21T05:05:12;9.83;;;4.50;;
19080;SDS011;9673;50.868;3.152;2022-08-21T05:08:19;14.87;;;4.53;;
19080;SDS011;9673;50.868;3.152;2022-08-21T05:11:30;13.40;;;4.17;;
19080;SDS011;9673;50.868;3.152;2022-08-21T05:14:37;14.30;;;4.90;;
19080;SDS011;9673;50.868;3.152;2022-08-21T05:17:45;18.03;;;5.07;;
19080;SDS011;9673;50.868;3.152;2022-08-21T05:21:04;13.77;;;4.53;;
19080;SDS011;9673;50.868;3.152;2022-08-21T05:24:11;14.07;;;4.73;;
19080;SDS011;9673;50.868;3.152;2022-08-21T05:27:17;13.23;;;4.50;;
19080;SDS011;9673;50.868;3.152;2022-08-21T05:30:24;14.33;;;5.10;;
19080;SDS011;9673;50.868;3.152;2022-08-21T05:33:32;17.60;;;4.90;;
19080;SDS011;9673;50.868;3.152;2022-08-21T05:36:39;13.80;;;4.80;;
19080;SDS011;9673;50.868;3.152;2022-08-21T05:39:45;8.37;;;4.80;;
19080;SDS011;9673;50.868;3.152;2022-08-21T05:43:12;14.73;;;4.67;;
19080;SDS011;9673;50.868;3.152;2022-08-21T05:46:19;13.03;;;4.60;;
19080;SDS011;9673;50.868;3.152;2022-08-21T05:49:27;9.37;;;4.20;;
19080;SDS011;9673;50.868;3.152;2022-08-21T05:52:33;13.20;;;4.43;;
19080;SDS011;9673;50.868;3.152;2022-08-21T05:55:40;13.30;;;4.70;;
19080;SDS011;9673;50.868;3.152;2022-08-21T05:58:50;15.73;;;4.37;;
19080;SDS011;9673;50.868;3.152;2022-08-21T06:01:56;10.70;;;3.60;;
19080;SDS011;9673;50.868;3.152;2022-08-21T06:05:10;16.57;;;4.90;;
19080;SDS011;9673;50.868;3.152;2022-08-21T06:08:20;21.43;;;4.87;;
19080;SDS011;9673;50.868;3.152;2022-08-21T06:11:27;15.53;;;4.23;;
19080;SDS011;9673;50.868;3.152;2022-08-21T06:14:34;12.07;;;4.57;;
19080;SDS011;9673;50.868;3.152;2022-08-21T06:17:41;11.83;;;3.90;;
19080;SDS011;9673;50.868;3.152;2022-08-21T06:20:49;10.63;;;4.30;;
19080;SDS011;9673;50.868;3.152;2022-08-21T06:23:55;17.27;;;4.63;;
19080;SDS011;9673;50.868;3.152;2022-08-21T06:27:04;10.10;;;3.63;;
19080;SDS011;9673;50.868;3.152;2022-08-21T06:30:12;18.63;;;4.30;;
19080;SDS011;9673;50.868;3.152;2022-08-21T06:33:19;14.87;;;4.20;;
19080;SDS011;9673;50.868;3.152;2022-08-21T06:36:27;10.33;;;3.60;;
19080;SDS011;9673;50.868;3.152;2022-08-21T06:39:34;11.10;;;3.57;;
19080;SDS011;9673;50.868;3.152;2022-08-21T06:42:43;13.30;;;3.70;;
19080;SDS011;9673;50.868;3.152;2022-08-21T06:45:51;16.73;;;4.30;;
19080;SDS011;9673;50.868;3.152;2022-08-21T06:48:58;7.83;;;3.53;;
19080;SDS011;9673;50.868;3.152;2022-08-21T06:52:09;14.90;;;4.13;;
19080;SDS011;9673;50.868;3.152;2022-08-21T06:55:17;13.67;;;3.50;;
19080;SDS011;9673;50.868;3.152;2022-08-21T06:58:26;13.87;;;3.40;;
19080;SDS011;9673;50.868;3.152;2022-08-21T07:01:33;12.87;;;3.60;;
19080;SDS011;9673;50.868;3.152;2022-08-21T07:04:39;21.57;;;4.33;;
19080;SDS011;9673;50.868;3.152;2022-08-21T07:07:47;15.97;;;4.37;;
19080;SDS011;9673;50.868;3.152;2022-08-21T07:10:53;17.40;;;4.23;;
19080;SDS011;9673;50.868;3.152;2022-08-21T07:14:03;10.23;;;3.87;;
19080;SDS011;9673;50.868;3.152;2022-08-21T07:17:10;17.17;;;4.00;;
19080;SDS011;9673;50.868;3.152;2022-08-21T07:20:16;14.10;;;4.30;;
19080;SDS011;9673;50.868;3.152;2022-08-21T07:23:26;10.47;;;4.13;;
19080;SDS011;9673;50.868;3.152;2022-08-21T07:26:36;12.23;;;3.70;;
19080;SDS011;9673;50.868;3.152;2022-08-21T07:29:43;10.67;;;3.77;;
19080;SDS011;9673;50.868;3.152;2022-08-21T07:32:50;9.57;;;3.83;;
19080;SDS011;9673;50.868;3.152;2022-08-21T07:35:56;11.53;;;3.70;;
19080;SDS011;9673;50.868;3.152;2022-08-21T07:39:05;16.33;;;4.20;;
19080;SDS011;9673;50.868;3.152;2022-08-21T07:42:12;13.53;;;4.00;;
19080;SDS011;9673;50.868;3.152;2022-08-21T07:45:19;12.50;;;3.80;;
19080;SDS011;9673;50.868;3.152;2022-08-21T07:48:28;15.07;;;3.97;;
19080;SDS011;9673;50.868;3.152;2022-08-21T07:51:34;11.93;;;4.10;;
19080;SDS011;9673;50.868;3.152;2022-08-21T07:54:42;10.87;;;3.80;;
19080;SDS011;9673;50.868;3.152;2022-08-21T07:57:49;19.13;;;3.97;;
19080;SDS011;9673;50.868;3.152;2022-08-21T08:00:55;12.27;;;3.77;;
19080;SDS011;9673;50.868;3.152;2022-08-21T08:04:02;13.83;;;3.07;;
19080;SDS011;9673;50.868;3.152;2022-08-21T08:07:09;11.83;;;2.90;;
19080;SDS011;9673;50.868;3.152;2022-08-21T08:10:17;11.03;;;2.87;;
19080;SDS011;9673;50.868;3.152;2022-08-21T08:13:24;10.60;;;3.27;;
19080;SDS011;9673;50.868;3.152;2022-08-21T08:16:31;15.33;;;3.20;;
19080;SDS011;9673;50.868;3.152;2022-08-21T08:19:37;10.97;;;3.03;;
19080;SDS011;9673;50.868;3.152;2022-08-21T08:22:44;13.43;;;2.90;;
19080;SDS011;9673;50.868;3.152;2022-08-21T08:25:55;10.43;;;3.20;;
19080;SDS011;9673;50.868;3.152;2022-08-21T08:29:01;15.37;;;3.13;;
19080;SDS011;9673;50.868;3.152;2022-08-21T08:32:07;7.03;;;3.20;;
19080;SDS011;9673;50.868;3.152;2022-08-21T08:35:14;15.17;;;2.93;;
19080;SDS011;9673;50.868;3.152;2022-08-21T08:38:25;10.17;;;2.87;;
19080;SDS011;9673;50.868;3.152;2022-08-21T08:41:33;10.27;;;3.03;;
19080;SDS011;9673;50.868;3.152;2022-08-21T08:44:42;10.33;;;2.80;;
19080;SDS011;9673;50.868;3.152;2022-08-21T08:47:50;14.35;;;2.90;;
19080;SDS011;9673;50.868;3.152;2022-08-21T08:51:02;11.00;;;2.20;;
19080;SDS011;9673;50.868;3.152;2022-08-21T08:54:15;16.50;;;2.47;;
19080;SDS011;9673;50.868;3.152;2022-08-21T08:57:30;11.70;;;2.85;;
19080;SDS011;9673;50.868;3.152;2022-08-21T09:00:38;7.65;;;1.70;;
19080;SDS011;9673;50.868;3.152;2022-08-21T09:03:45;12.98;;;2.03;;
19080;SDS011;9673;50.868;3.152;2022-08-21T09:07:00;6.65;;;2.40;;
19080;SDS011;9673;50.868;3.152;2022-08-21T09:10:17;9.55;;;2.35;;
19080;SDS011;9673;50.868;3.152;2022-08-21T09:13:30;7.82;;;2.00;;
19080;SDS011;9673;50.868;3.152;2022-08-21T09:16:51;13.25;;;2.38;;
19080;SDS011;9673;50.868;3.152;2022-08-21T09:20:11;13.35;;;2.60;;
19080;SDS011;9673;50.868;3.152;2022-08-21T09:23:29;11.90;;;2.57;;
19080;SDS011;9673;50.868;3.152;2022-08-21T09:26:45;11.13;;;1.85;;
19080;SDS011;9673;50.868;3.152;2022-08-21T09:30:01;13.25;;;2.17;;
19080;SDS011;9673;50.868;3.152;2022-08-21T09:33:09;9.98;;;1.67;;
19080;SDS011;9673;50.868;3.152;2022-08-21T09:36:24;7.53;;;2.00;;
19080;SDS011;9673;50.868;3.152;2022-08-21T09:39:41;10.23;;;2.13;;
19080;SDS011;9673;50.868;3.152;2022-08-21T09:42:56;12.43;;;2.05;;
19080;SDS011;9673;50.868;3.152;2022-08-21T09:46:08;10.48;;;2.25;;
19080;SDS011;9673;50.868;3.152;2022-08-21T09:49:26;9.32;;;1.65;;
19080;SDS011;9673;50.868;3.152;2022-08-21T09:52:34;8.85;;;1.92;;
19080;SDS011;9673;50.868;3.152;2022-08-21T09:55:46;6.22;;;1.70;;
19080;SDS011;9673;50.868;3.152;2022-08-21T09:59:15;8.32;;;1.75;;
19080;SDS011;9673;50.868;3.152;2022-08-21T10:02:41;7.50;;;1.90;;
19080;SDS011;9673;50.868;3.152;2022-08-21T10:05:52;5.43;;;1.65;;
19080;SDS011;9673;50.868;3.152;2022-08-21T10:09:03;8.82;;;1.90;;
19080;SDS011;9673;50.868;3.152;2022-08-21T10:12:19;8.75;;;1.73;;
19080;SDS011;9673;50.868;3.152;2022-08-21T10:15:33;9.65;;;1.90;;
19080;SDS011;9673;50.868;3.152;2022-08-21T10:19:01;8.73;;;1.60;;
19080;SDS011;9673;50.868;3.152;2022-08-21T10:22:22;13.55;;;2.03;;
19080;SDS011;9673;50.868;3.152;2022-08-21T10:25:41;12.23;;;2.00;;
19080;SDS011;9673;50.868;3.152;2022-08-21T10:29:16;12.43;;;2.58;;
19080;SDS011;9673;50.868;3.152;2022-08-21T10:32:41;9.57;;;1.98;;
19080;SDS011;9673;50.868;3.152;2022-08-21T10:36:06;11.00;;;2.13;;
19080;SDS011;9673;50.868;3.152;2022-08-21T10:39:20;18.13;;;1.90;;
19080;SDS011;9673;50.868;3.152;2022-08-21T10:42:42;8.73;;;2.00;;
19080;SDS011;9673;50.868;3.152;2022-08-21T10:46:02;12.98;;;2.17;;
19080;SDS011;9673;50.868;3.152;2022-08-21T10:49:22;9.27;;;2.08;;
19080;SDS011;9673;50.868;3.152;2022-08-21T10:52:48;8.57;;;2.10;;
19080;SDS011;9673;50.868;3.152;2022-08-21T10:56:16;7.32;;;1.90;;
19080;SDS011;9673;50.868;3.152;2022-08-21T10:59:28;10.10;;;2.45;;
19080;SDS011;9673;50.868;3.152;2022-08-21T11:02:42;10.20;;;2.10;;
19080;SDS011;9673;50.868;3.152;2022-08-21T11:05:55;10.00;;;1.75;;
19080;SDS011;9673;50.868;3.152;2022-08-21T11:09:11;13.13;;;2.22;;
19080;SDS011;9673;50.868;3.152;2022-08-21T11:12:24;8.88;;;2.20;;
19080;SDS011;9673;50.868;3.152;2022-08-21T11:15:37;7.60;;;2.17;;
19080;SDS011;9673;50.868;3.152;2022-08-21T11:18:50;13.88;;;2.10;;
19080;SDS011;9673;50.868;3.152;2022-08-21T11:22:06;19.58;;;2.38;;
19080;SDS011;9673;50.868;3.152;2022-08-21T11:25:22;12.10;;;2.33;;
19080;SDS011;9673;50.868;3.152;2022-08-21T11:28:41;10.45;;;2.42;;
19080;SDS011;9673;50.868;3.152;2022-08-21T11:31:58;15.95;;;2.60;;
19080;SDS011;9673;50.868;3.152;2022-08-21T11:35:22;5.57;;;1.73;;
19080;SDS011;9673;50.868;3.152;2022-08-21T11:38:39;6.50;;;1.97;;
19080;SDS011;9673;50.868;3.152;2022-08-21T11:45:51;7.78;;;1.35;;
19080;SDS011;9673;50.868;3.152;2022-08-21T11:49:03;6.43;;;1.50;;
19080;SDS011;9673;50.868;3.152;2022-08-21T11:52:25;10.00;;;1.70;;
19080;SDS011;9673;50.868;3.152;2022-08-21T11:55:38;8.80;;;1.92;;
19080;SDS011;9673;50.868;3.152;2022-08-21T11:58:51;9.70;;;1.30;;
19080;SDS011;9673;50.868;3.152;2022-08-21T12:02:03;12.23;;;2.28;;
19080;SDS011;9673;50.868;3.152;2022-08-21T12:05:24;15.53;;;2.40;;
19080;SDS011;9673;50.868;3.152;2022-08-21T12:08:36;12.68;;;2.47;;
19080;SDS011;9673;50.868;3.152;2022-08-21T12:11:47;7.88;;;1.80;;
19080;SDS011;9673;50.868;3.152;2022-08-21T12:15:24;11.82;;;2.25;;
19080;SDS011;9673;50.868;3.152;2022-08-21T12:18:34;6.78;;;2.13;;
19080;SDS011;9673;50.868;3.152;2022-08-21T12:21:47;14.32;;;2.10;;
19080;SDS011;9673;50.868;3.152;2022-08-21T12:25:03;12.90;;;2.53;;
19080;SDS011;9673;50.868;3.152;2022-08-21T12:28:14;15.23;;;2.60;;
19080;SDS011;9673;50.868;3.152;2022-08-21T12:31:29;12.68;;;2.17;;
19080;SDS011;9673;50.868;3.152;2022-08-21T12:34:36;9.60;;;2.10;;
19080;SDS011;9673;50.868;3.152;2022-08-21T12:37:46;10.27;;;2.47;;
19080;SDS011;9673;50.868;3.152;2022-08-21T12:40:59;17.17;;;2.67;;
19080;SDS011;9673;50.868;3.152;2022-08-21T12:44:10;13.30;;;2.30;;
19080;SDS011;9673;50.868;3.152;2022-08-21T12:47:25;11.23;;;2.23;;
19080;SDS011;9673;50.868;3.152;2022-08-21T12:50:38;11.50;;;2.27;;
19080;SDS011;9673;50.868;3.152;2022-08-21T12:53:53;11.37;;;2.27;;
19080;SDS011;9673;50.868;3.152;2022-08-21T12:57:02;12.50;;;2.43;;
19080;SDS011;9673;50.868;3.152;2022-08-21T13:00:20;15.63;;;2.27;;
19080;SDS011;9673;50.868;3.152;2022-08-21T13:03:31;12.17;;;2.10;;
19080;SDS011;9673;50.868;3.152;2022-08-21T13:06:41;12.83;;;2.00;;
19080;SDS011;9673;50.868;3.152;2022-08-21T13:09:52;12.90;;;1.70;;
19080;SDS011;9673;50.868;3.152;2022-08-21T13:13:03;12.73;;;1.50;;
19080;SDS011;9673;50.868;3.152;2022-08-21T13:16:18;8.10;;;2.27;;
19080;SDS011;9673;50.868;3.152;2022-08-21T13:19:30;12.20;;;2.33;;
19080;SDS011;9673;50.868;3.152;2022-08-21T13:22:41;21.17;;;2.33;;
19080;SDS011;9673;50.868;3.152;2022-08-21T13:25:49;12.40;;;2.37;;
19080;SDS011;9673;50.868;3.152;2022-08-21T13:28:55;11.98;;;2.33;;
19080;SDS011;9673;50.868;3.152;2022-08-21T13:32:18;13.52;;;3.00;;
19080;SDS011;9673;50.868;3.152;2022-08-21T13:35:31;7.63;;;1.97;;
19080;SDS011;9673;50.868;3.152;2022-08-21T13:38:50;13.17;;;2.30;;
19080;SDS011;9673;50.868;3.152;2022-08-21T13:41:58;13.77;;;2.43;;
19080;SDS011;9673;50.868;3.152;2022-08-21T13:45:13;13.13;;;2.37;;
19080;SDS011;9673;50.868;3.152;2022-08-21T13:48:25;10.27;;;2.13;;
19080;SDS011;9673;50.868;3.152;2022-08-21T13:51:36;13.10;;;2.23;;
19080;SDS011;9673;50.868;3.152;2022-08-21T13:54:43;7.90;;;2.27;;
19080;SDS011;9673;50.868;3.152;2022-08-21T13:57:58;11.52;;;2.10;;
19080;SDS011;9673;50.868;3.152;2022-08-21T14:01:05;8.20;;;2.25;;
19080;SDS011;9673;50.868;3.152;2022-08-21T14:04:25;9.40;;;2.38;;
19080;SDS011;9673;50.868;3.152;2022-08-21T14:07:40;11.30;;;2.15;;
19080;SDS011;9673;50.868;3.152;2022-08-21T14:10:48;10.85;;;2.92;;
19080;SDS011;9673;50.868;3.152;2022-08-21T14:14:02;14.23;;;2.40;;
19080;SDS011;9673;50.868;3.152;2022-08-21T14:17:14;9.50;;;1.90;;
19080;SDS011;9673;50.868;3.152;2022-08-21T14:20:37;13.93;;;2.63;;
19080;SDS011;9673;50.868;3.152;2022-08-21T14:23:45;12.85;;;2.40;;
19080;SDS011;9673;50.868;3.152;2022-08-21T14:26:52;11.27;;;2.30;;
19080;SDS011;9673;50.868;3.152;2022-08-21T14:30:03;14.23;;;2.33;;
19080;SDS011;9673;50.868;3.152;2022-08-21T14:33:20;11.32;;;1.98;;
19080;SDS011;9673;50.868;3.152;2022-08-21T14:36:32;11.65;;;2.20;;
19080;SDS011;9673;50.868;3.152;2022-08-21T14:39:40;9.93;;;2.28;;
19080;SDS011;9673;50.868;3.152;2022-08-21T14:42:49;12.73;;;2.25;;
19080;SDS011;9673;50.868;3.152;2022-08-21T14:45:56;10.98;;;2.05;;
19080;SDS011;9673;50.868;3.152;2022-08-21T14:49:03;10.27;;;1.88;;
19080;SDS011;9673;50.868;3.152;2022-08-21T14:52:09;8.88;;;2.88;;
19080;SDS011;9673;50.868;3.152;2022-08-21T14:55:17;12.15;;;2.38;;
19080;SDS011;9673;50.868;3.152;2022-08-21T14:58:24;10.10;;;1.80;;
19080;SDS011;9673;50.868;3.152;2022-08-21T15:01:31;15.90;;;2.00;;
19080;SDS011;9673;50.868;3.152;2022-08-21T15:04:41;8.10;;;2.05;;
19080;SDS011;9673;50.868;3.152;2022-08-21T15:07:48;7.72;;;2.15;;
19080;SDS011;9673;50.868;3.152;2022-08-21T15:10:55;11.73;;;2.65;;
19080;SDS011;9673;50.868;3.152;2022-08-21T15:14:17;10.27;;;1.90;;
19080;SDS011;9673;50.868;3.152;2022-08-21T15:17:27;8.35;;;1.80;;
19080;SDS011;9673;50.868;3.152;2022-08-21T15:20:33;13.52;;;1.92;;
19080;SDS011;9673;50.868;3.152;2022-08-21T15:23:41;7.97;;;1.85;;
19080;SDS011;9673;50.868;3.152;2022-08-21T15:26:49;9.95;;;1.88;;
19080;SDS011;9673;50.868;3.152;2022-08-21T15:29:57;7.32;;;1.50;;
19080;SDS011;9673;50.868;3.152;2022-08-21T15:33:04;12.20;;;2.00;;
19080;SDS011;9673;50.868;3.152;2022-08-21T15:36:11;13.98;;;2.10;;
19080;SDS011;9673;50.868;3.152;2022-08-21T15:39:18;10.07;;;2.28;;
19080;SDS011;9673;50.868;3.152;2022-08-21T15:42:29;6.55;;;1.55;;
19080;SDS011;9673;50.868;3.152;2022-08-21T15:45:36;8.85;;;2.10;;
19080;SDS011;9673;50.868;3.152;2022-08-21T15:48:43;10.25;;;2.38;;
19080;SDS011;9673;50.868;3.152;2022-08-21T15:51:51;14.85;;;2.10;;
19080;SDS011;9673;50.868;3.152;2022-08-21T15:54:58;12.55;;;1.70;;
19080;SDS011;9673;50.868;3.152;2022-08-21T15:58:06;8.82;;;1.60;;
19080;SDS011;9673;50.868;3.152;2022-08-21T16:01:13;9.45;;;1.83;;
19080;SDS011;9673;50.868;3.152;2022-08-21T16:04:20;8.93;;;1.73;;
19080;SDS011;9673;50.868;3.152;2022-08-21T16:07:29;9.02;;;1.35;;
19080;SDS011;9673;50.868;3.152;2022-08-21T16:10:35;12.60;;;1.48;;
19080;SDS011;9673;50.868;3.152;2022-08-21T16:13:44;7.57;;;1.48;;
19080;SDS011;9673;50.868;3.152;2022-08-21T16:16:57;8.63;;;1.47;;
19080;SDS011;9673;50.868;3.152;2022-08-21T16:20:06;8.25;;;1.65;;
19080;SDS011;9673;50.868;3.152;2022-08-21T16:23:16;13.95;;;2.25;;
19080;SDS011;9673;50.868;3.152;2022-08-21T16:26:22;11.70;;;1.70;;
19080;SDS011;9673;50.868;3.152;2022-08-21T16:29:32;8.70;;;1.95;;
19080;SDS011;9673;50.868;3.152;2022-08-21T16:32:43;6.00;;;1.90;;
19080;SDS011;9673;50.868;3.152;2022-08-21T16:35:50;12.27;;;2.35;;
19080;SDS011;9673;50.868;3.152;2022-08-21T16:38:57;5.13;;;1.83;;
19080;SDS011;9673;50.868;3.152;2022-08-21T16:42:04;6.93;;;1.90;;
19080;SDS011;9673;50.868;3.152;2022-08-21T16:45:14;14.47;;;2.40;;
19080;SDS011;9673;50.868;3.152;2022-08-21T16:48:23;13.30;;;2.67;;
19080;SDS011;9673;50.868;3.152;2022-08-21T16:51:30;8.47;;;2.20;;
19080;SDS011;9673;50.868;3.152;2022-08-21T16:54:37;13.40;;;2.70;;
19080;SDS011;9673;50.868;3.152;2022-08-21T16:57:47;11.10;;;2.63;;
19080;SDS011;9673;50.868;3.152;2022-08-21T17:00:54;10.03;;;2.40;;
19080;SDS011;9673;50.868;3.152;2022-08-21T17:04:02;12.70;;;3.10;;
19080;SDS011;9673;50.868;3.152;2022-08-21T17:07:09;14.13;;;2.63;;
19080;SDS011;9673;50.868;3.152;2022-08-21T17:10:16;12.23;;;2.30;;
19080;SDS011;9673;50.868;3.152;2022-08-21T17:13:23;11.00;;;3.03;;
19080;SDS011;9673;50.868;3.152;2022-08-21T17:16:32;11.17;;;2.67;;
19080;SDS011;9673;50.868;3.152;2022-08-21T17:19:39;12.93;;;2.77;;
19080;SDS011;9673;50.868;3.152;2022-08-21T17:22:45;16.20;;;3.13;;
19080;SDS011;9673;50.868;3.152;2022-08-21T17:25:52;22.97;;;3.83;;
19080;SDS011;9673;50.868;3.152;2022-08-21T17:29:00;11.37;;;3.10;;
19080;SDS011;9673;50.868;3.152;2022-08-21T17:32:09;15.37;;;3.13;;
19080;SDS011;9673;50.868;3.152;2022-08-21T17:35:17;11.33;;;2.80;;
19080;SDS011;9673;50.868;3.152;2022-08-21T17:38:24;15.50;;;3.30;;
19080;SDS011;9673;50.868;3.152;2022-08-21T17:41:31;12.60;;;3.03;;
19080;SDS011;9673;50.868;3.152;2022-08-21T17:44:39;16.70;;;3.27;;
19080;SDS011;9673;50.868;3.152;2022-08-21T17:47:50;12.00;;;3.00;;
19080;SDS011;9673;50.868;3.152;2022-08-21T17:50:56;20.17;;;3.43;;
19080;SDS011;9673;50.868;3.152;2022-08-21T17:54:03;15.73;;;3.37;;
19080;SDS011;9673;50.868;3.152;2022-08-21T17:57:10;22.70;;;4.00;;
19080;SDS011;9673;50.868;3.152;2022-08-21T18:00:28;11.63;;;3.67;;
19080;SDS011;9673;50.868;3.152;2022-08-21T18:03:37;12.90;;;3.23;;
19080;SDS011;9673;50.868;3.152;2022-08-21T18:06:44;15.63;;;3.17;;
19080;SDS011;9673;50.868;3.152;2022-08-21T18:09:50;14.87;;;3.37;;
19080;SDS011;9673;50.868;3.152;2022-08-21T18:13:00;15.63;;;2.60;;
19080;SDS011;9673;50.868;3.152;2022-08-21T18:16:10;11.50;;;3.73;;
19080;SDS011;9673;50.868;3.152;2022-08-21T18:19:24;14.47;;;3.17;;
19080;SDS011;9673;50.868;3.152;2022-08-21T18:22:30;17.67;;;3.87;;
19080;SDS011;9673;50.868;3.152;2022-08-21T18:25:37;18.93;;;3.73;;
19080;SDS011;9673;50.868;3.152;2022-08-21T18:28:45;18.03;;;3.00;;
19080;SDS011;9673;50.868;3.152;2022-08-21T18:31:52;20.07;;;3.80;;
19080;SDS011;9673;50.868;3.152;2022-08-21T18:35:00;11.73;;;3.20;;
19080;SDS011;9673;50.868;3.152;2022-08-21T18:38:12;15.53;;;3.17;;
19080;SDS011;9673;50.868;3.152;2022-08-21T18:41:19;13.53;;;3.40;;
19080;SDS011;9673;50.868;3.152;2022-08-21T18:44:27;14.63;;;3.33;;
19080;SDS011;9673;50.868;3.152;2022-08-21T18:47:38;14.30;;;3.67;;
19080;SDS011;9673;50.868;3.152;2022-08-21T18:50:49;13.83;;;3.63;;
19080;SDS011;9673;50.868;3.152;2022-08-21T18:53:56;12.93;;;3.73;;
19080;SDS011;9673;50.868;3.152;2022-08-21T18:57:02;12.33;;;3.30;;
19080;SDS011;9673;50.868;3.152;2022-08-21T19:00:13;12.17;;;3.90;;
19080;SDS011;9673;50.868;3.152;2022-08-21T19:03:23;17.33;;;3.20;;
19080;SDS011;9673;50.868;3.152;2022-08-21T19:09:49;13.37;;;3.40;;
19080;SDS011;9673;50.868;3.152;2022-08-21T19:13:18;18.40;;;3.80;;
19080;SDS011;9673;50.868;3.152;2022-08-21T19:16:26;21.00;;;3.80;;
19080;SDS011;9673;50.868;3.152;2022-08-21T19:19:32;15.53;;;4.07;;